Vaaraa aiheuttavia sääilmiöitä ei ole odotettavissa.    Ei varoituksia

Webkamera Lisätietoa Webcam


Yksityisiä sääasemia lähellä:

Sääasema Juupajoki

Sääasema Orivesi

Sääasema Muurame

Sääasema Jyväskylä

Sääasema Vihtavuori


Löydät sääaseman tiedot myös:

Finland Weather Exchange

European Weather Network

Weather Underground

AWEKAS

Windy.com



Säätiedot lähimmiltä METAR asemilta

   
EFHA - Halli (Fin-Afb), Finland
Etäisyys asemalta: Kaakko 25 km
Päivitetty: 01.04.2020 20:50
Selkeää  
Selkeää  
   Tuuli: Länsilounas 2.1 m/s
Tuuli: Länsilounas 2.1 m/s
Lämpötila: -2°C
Tuulen hyytävyys: -5°C
Kastepiste: -7°C
Kosteus: 69%
Ilmanpaine: 995 hPa
Näkyvyys: Enemmän kuin 10 km
Pilvitiedot: Selkeää
EFHA 011750Z AUTO 24004KT CAVOK M02/M07 Q0995
EFJY - Jyvaskyla (Mil/Civ), Finland
Etäisyys asemalta: Koillinen 75 km
Päivitetty: 01.04.2020 21:20
Selkeää  
Selkeää  
   Tuuli: Länsiluode 2.1 m/s
Tuuli: Länsiluode 2.1 m/s
Lämpötila: -4°C
Tuulen hyytävyys: -7°C
Kastepiste: -8°C
Kosteus: 74%
Ilmanpaine: 994 hPa
Näkyvyys: Enemmän kuin 10 km
Pilvitiedot: Selkeää
EFJY 011820Z AUTO 29004KT CAVOK M04/M08 Q0994
EFTP - Tampere/Pirkkala, Finland
Etäisyys asemalta: Lounas 81 km
Päivitetty: 01.04.2020 21:20
Selkeää  
Selkeää  
   Tuuli: Länsi 3.1 m/s
Tuuli: Länsi 3.1 m/s
Lämpötila: 0°C
Tuulen hyytävyys: -3°C
Kastepiste: -9°C
Kosteus: 51%
Ilmanpaine: 996 hPa
Näkyvyys: Enemmän kuin 10 km
Pilvitiedot: Selkeää
EFTP 011820Z AUTO 26006KT CAVOK M00/M09 Q0996
EFSI - Seinajoki-Ilmajoki, Finland
Etäisyys asemalta: Luode 114 km
Päivitetty: 01.04.2020 21:20
Selkeää  
Selkeää  
   Tuuli: Tyyntä
Tuuli: Tyyntä
Lämpötila: -3°C
Kastepiste: -6°C
Kosteus: 80%
Ilmanpaine: 995 hPa
Näkyvyys: Enemmän kuin 10 km
Pilvitiedot: Selkeää
EFSI 011820Z AUTO 00000KT CAVOK M03/M06 Q0995
EFMI - Mikkeli, Finland
Etäisyys asemalta: Itäkaakko 147 km
Päivitetty: 01.04.2020 21:20
Selkeää  
Selkeää  
   Tuuli: Länsiluode 3.6 m/s
Tuuli: Länsiluode 3.6 m/s
Lämpötila: 0°C
Tuulen hyytävyys: -4°C
Kastepiste: -9°C
Kosteus: 51%
Ilmanpaine: 995 hPa
Näkyvyys: Enemmän kuin 10 km
Pilvitiedot: Selkeää
EFMI 011820Z AUTO 29007KT 250V340 CAVOK 00/M09 Q0995
EFPO - Pori (Mil/Civ), Finland
Etäisyys asemalta: Länsilounas 154 km
Päivitetty: 01.04.2020 21:20
Selkeää  
Selkeää  
   Tuuli: Etelä 1.5 m/s
Tuuli: Etelä 1.5 m/s
Lämpötila: 0°C
Tuulen hyytävyys: -2°C
Kastepiste: -6°C
Kosteus: 64%
Ilmanpaine: 996 hPa
Näkyvyys: Enemmän kuin 10 km
Pilvitiedot: Selkeää
EFPO 011820Z AUTO 18003KT CAVOK M00/M06 Q0996
EFUT - Utti (Fin-Afb), Finland
Etäisyys asemalta: Kaakko 180 km
Päivitetty: 01.04.2020 21:20
Selkeää  
Selkeää  
   Tuuli: Luode 1.5 m/s
Tuuli: Luode 1.5 m/s
Lämpötila: 1°C
Tuulen hyytävyys: -1°C
Kastepiste: -6°C
Kosteus: 60%
Ilmanpaine: 995 hPa
Näkyvyys: Enemmän kuin 10 km
Pilvitiedot: Selkeää
EFUT 011820Z 32003KT 280V360 CAVOK 01/M06 Q0995
EFVA - Vaasa, Finland
Etäisyys asemalta: Luode 180 km
Päivitetty: 01.04.2020 21:20
Selkeää  
Selkeää  
   Tuuli: Itä 1 m/s
Tuuli: Itä 1 m/s
Lämpötila: -1°C
Kastepiste: -6°C
Kosteus: 69%
Ilmanpaine: 995 hPa
Näkyvyys: Enemmän kuin 10 km
Pilvitiedot: Selkeää
EFVA 011820Z AUTO 10002KT CAVOK M01/M06 Q0995
EFHK - Helsinki/Vantaa, Finland
Etäisyys asemalta: Etelä 191 km
Päivitetty: 01.04.2020 21:20
Selkeää  
Selkeää  
   Tuuli: Länsi 2.6 m/s
Tuuli: Länsi 2.6 m/s
Lämpötila: 2°C
Tuulen hyytävyys: -1°C
Kastepiste: -9°C
Kosteus: 44%
Ilmanpaine: 997 hPa
Näkyvyys: Enemmän kuin 10 km
Pilvitiedot: Selkeää
EFHK 011820Z 28005KT CAVOK 02/M09 Q0997 NOSIG

Alkuperäinen skripti  Saratoga-weather.org Sovitettu myös templatelle  Weerstation Leuven

Laitteet joita käytämme:

Sääasema
Davis VP2

Sääasemaohjelma
Cumulus

Sääaseman palvelin
HP ProBook 6460b

Palveluntarjoaja
Radicenter

Davis VP2

Cumulus

HP ProBook 6460b

Radicenter




Flag Counter Cumulus Top Weather Sites